KRWV

Details ICAO KRWV
Name CALDWELL MUNI
Region United States
Timezone America/Chicago (UTC-6.0)
Plans Departing 1
Arriving 1
Stats Elevation 391 ft / 119 m (AMSL)
Location 30.515473° -96.704085°
Runways 1
Magnetic Variation 3.256° E
Sunrise 2017-12-17 13:19:06 UTC / 2017-12-17 07:19:06 Local
Sunset 2017-12-17 23:29:45 UTC / 2017-12-17 17:29:45 Local
Advertisement - Login to hide

Runways

ID Width Length Bearing (true) Bearing (mag) Surface Threshold Offset Overrun Length
15 50 ft / 15 m 3,259 ft / 993 m 152.47° 149.21° Asphalt 0 ft / 0 m 0 ft / 0 m
33 50 ft / 15 m 3,259 ft / 993 m 332.47° 329.21° Asphalt 242 ft / 74 m 0 ft / 0 m

Map

Weather


0- 5 10 15 20 25 30 35+ Temperature / ° C

Clouds and Precipitation
Forecast for 2017-12-18 06:00 UTC. Updated 14 minutes ago

Ground ~20,000 ft ~40,000 ft Winds

METAR

KRWV 180115Z AUTO 09004KT 10SM OVC005 10/09 A3010 RMK AO2 T00970089

TAF

Not found

Frequencies

Recorded 118.35 MHz AWOS 3
Approach 120.40 MHz HOUSTON CNTR
Unicom 122.90 MHz CTAF
Warning: Do not use this data for real-world aviation or navigation. No guarantee of current accuracy is given.